Time;durP1;ratioP1;P1;durP2;ratioP2;P2;SDS_P1;SDS_P2;PMS_P1;PMS_P2;Temp;Humidity;BMP_temperature;BMP_pressure;BME280_temperature;BME280_humidity;BME280_pressure;Samples;Min_cycle;Max_cycle;Signal;HPM_P1;HPM_P2
2023/07/22 00:01:02;;;;;;;14.45;11.68;;;;;;;13.62;100.00;99844.66;5056614;28;20665;-81
2023/07/22 00:03:29;;;;;;;14.70;11.65;;;;;;;13.61;100.00;99836.88;5068898;28;20044;-80
2023/07/22 00:06:08;;;;;;;15.30;11.43;;;;;;;13.62;100.00;99842.00;5048275;28;20568;-79
2023/07/22 00:08:35;;;;;;;15.40;11.43;;;;;;;13.62;100.00;99836.69;5079393;28;20036;-81
2023/07/22 00:11:01;;;;;;;20.02;11.77;;;;;;;13.63;100.00;99832.22;5049650;28;20091;-80
2023/07/22 00:13:27;;;;;;;15.82;11.68;;;;;;;13.62;100.00;99826.06;5064995;28;20044;-80
2023/07/22 00:15:54;;;;;;;15.70;12.15;;;;;;;13.62;100.00;99819.91;5083988;28;20029;-81
2023/07/22 00:18:19;;;;;;;18.42;12.05;;;;;;;13.61;100.00;99818.28;5051357;28;20040;-81
2023/07/22 00:20:45;;;;;;;15.20;11.90;;;;;;;13.62;100.00;99820.75;5035272;28;20084;-81
2023/07/22 00:23:11;;;;;;;14.73;11.45;;;;;;;13.61;100.00;99811.16;5065053;28;20035;-81
2023/07/22 00:25:37;;;;;;;17.88;11.68;;;;;;;13.60;100.00;99814.78;5084628;28;20032;-81
2023/07/22 00:28:06;;;;;;;14.05;12.18;;;;;;;13.59;100.00;99805.19;5046583;28;20033;-81
2023/07/22 00:30:32;;;;;;;17.58;12.63;;;;;;;13.60;100.00;99806.81;5084703;28;20094;-81
2023/07/22 00:32:57;;;;;;;16.92;13.35;;;;;;;13.58;100.00;99798.22;5059594;28;20055;-82
2023/07/22 00:35:24;;;;;;;17.75;14.02;;;;;;;13.58;100.00;99800.91;5064295;28;20271;-81
2023/07/22 00:37:50;;;;;;;17.92;13.07;;;;;;;13.57;100.00;99791.25;5049381;28;20033;-80
2023/07/22 00:40:16;;;;;;;15.85;12.68;;;;;;;13.56;100.00;99796.75;5066285;28;20063;-83
2023/07/22 00:42:43;;;;;;;17.02;13.32;;;;;;;13.54;100.00;99794.28;5065819;28;20039;-81
2023/07/22 00:45:09;;;;;;;17.42;13.30;;;;;;;13.55;100.00;99787.97;5063939;28;20051;-82
2023/07/22 00:47:36;;;;;;;16.60;13.05;;;;;;;13.57;100.00;99788.59;5024906;28;20688;-83
2023/07/22 00:50:03;;;;;;;14.75;13.07;;;;;;;13.56;100.00;99776.34;5046784;28;20045;-81
2023/07/22 00:52:29;;;;;;;15.50;12.15;;;;;;;13.54;100.00;99762.41;5038607;28;20288;-82
2023/07/22 00:54:56;;;;;;;14.75;12.88;;;;;;;13.55;100.00;99764.09;5033981;28;20120;-81
2023/07/22 00:57:22;;;;;;;18.73;13.50;;;;;;;13.56;100.00;99767.53;5032869;28;20151;-82
2023/07/22 00:59:49;;;;;;;17.45;13.32;;;;;;;13.57;100.00;99758.59;5029198;28;20541;-81
2023/07/22 01:02:15;;;;;;;16.15;13.45;;;;;;;13.58;100.00;99755.75;5064724;28;20037;-80
2023/07/22 01:04:41;;;;;;;15.15;12.60;;;;;;;13.59;100.00;99752.09;5065577;28;20038;-82
2023/07/22 01:07:09;;;;;;;13.23;11.43;;;;;;;13.62;100.00;99756.19;5064609;28;20032;-81
2023/07/22 01:09:40;;;;;;;17.20;11.82;;;;;;;13.66;100.00;99748.69;5022949;28;20060;-79
2023/07/22 01:12:07;;;;;;;19.95;12.18;;;;;;;13.67;100.00;99739.72;5047232;28;20044;-80
2023/07/22 01:14:37;;;;;;;12.35;10.70;;;;;;;13.69;100.00;99735.06;5071827;28;20032;-80
2023/07/22 01:17:04;;;;;;;12.95;11.55;;;;;;;13.70;100.00;99734.88;5050633;28;20047;-79
2023/07/22 01:19:31;;;;;;;13.45;10.88;;;;;;;13.70;100.00;99723.41;5044317;28;20032;-78
2023/07/22 01:22:02;;;;;;;16.75;11.02;;;;;;;13.72;100.00;99727.56;5031506;28;20068;-76
2023/07/22 01:24:29;;;;;;;14.77;10.90;;;;;;;13.70;100.00;99721.59;5042180;28;20039;-78
2023/07/22 01:26:55;;;;;;;14.75;10.00;;;;;;;13.69;100.00;99716.47;5068618;28;20323;-78
2023/07/22 01:29:23;;;;;;;13.52;10.00;;;;;;;13.71;100.00;99712.59;5053679;28;20033;-78
2023/07/22 01:31:52;;;;;;;10.50;9.48;;;;;;;13.73;100.00;99705.28;5076635;28;20033;-78
2023/07/22 01:34:18;;;;;;;10.77;9.63;;;;;;;13.70;100.00;99702.16;5063288;28;20039;-79
2023/07/22 01:36:48;;;;;;;11.07;9.43;;;;;;;13.71;100.00;99699.31;5047405;28;20064;-79
2023/07/22 01:39:14;;;;;;;14.77;9.25;;;;;;;13.70;100.00;99696.84;5034304;28;20111;-82
2023/07/22 01:41:40;;;;;;;12.07;9.55;;;;;;;13.70;100.00;99694.19;5035709;28;20067;-81
2023/07/22 01:44:07;;;;;;;12.90;9.10;;;;;;;13.71;100.00;99691.34;5034660;28;20036;-80
2023/07/22 01:46:33;;;;;;;10.02;9.02;;;;;;;13.71;100.00;99682.59;5048650;28;20037;-80
2023/07/22 01:49:01;;;;;;;9.73;8.73;;;;;;;13.73;100.00;99676.06;5065562;28;20033;-81
2023/07/22 01:51:28;;;;;;;9.70;8.57;;;;;;;13.74;100.00;99679.56;5024235;28;20061;-82
2023/07/22 01:53:56;;;;;;;10.48;8.98;;;;;;;13.69;100.00;99672.16;5058979;28;20032;-82
2023/07/22 01:56:22;;;;;;;9.88;8.90;;;;;;;13.70;100.00;99659.69;5043543;28;20034;-81
2023/07/22 01:58:48;;;;;;;12.90;9.02;;;;;;;13.70;100.00;99654.38;5027244;28;20028;-80
2023/07/22 02:01:16;;;;;;;10.20;8.55;;;;;;;13.69;100.00;99650.91;5061792;28;20434;-80
2023/07/22 02:03:42;;;;;;;9.80;8.60;;;;;;;13.70;100.00;99647.22;5061849;28;20123;-81
2023/07/22 02:06:08;;;;;;;10.52;8.02;;;;;;;13.71;100.00;99642.75;5061874;28;20070;-82
2023/07/22 02:08:34;;;;;;;12.35;9.00;;;;;;;13.71;100.00;99638.25;5065979;28;20052;-81
2023/07/22 02:11:05;;;;;;;9.50;8.57;;;;;;;13.73;100.00;99632.75;5034368;28;20432;-80
2023/07/22 02:13:32;;;;;;;10.40;9.43;;;;;;;13.72;100.00;99639.09;5063118;28;20047;-80
2023/07/22 02:15:58;;;;;;;10.80;8.68;;;;;;;13.72;100.00;99631.13;5042330;28;20033;-82
2023/07/22 02:18:24;;;;;;;9.95;8.95;;;;;;;13.74;100.00;99627.25;5066849;28;20136;-80
2023/07/22 02:20:50;;;;;;;10.57;9.20;;;;;;;13.72;100.00;99618.66;5051809;28;20109;-81
2023/07/22 02:23:16;;;;;;;10.48;9.38;;;;;;;13.76;100.00;99619.13;5034437;28;20039;-80
2023/07/22 02:25:42;;;;;;;9.18;8.07;;;;;;;13.75;100.00;99620.13;5067848;28;20070;-78
2023/07/22 02:28:08;;;;;;;9.38;8.05;;;;;;;13.78;100.00;99622.41;5066840;28;20477;-81
2023/07/22 02:30:35;;;;;;;9.85;8.85;;;;;;;13.77;100.00;99624.25;5068118;28;20067;-80
2023/07/22 02:33:01;;;;;;;9.38;8.38;;;;;;;13.79;100.00;99615.28;5085386;28;20116;-77
2023/07/22 02:35:28;;;;;;;11.63;8.65;;;;;;;13.80;100.00;99612.44;5068624;28;20036;-79
2023/07/22 02:37:54;;;;;;;10.85;9.05;;;;;;;13.79;100.00;99599.34;5082324;28;20037;-81
2023/07/22 02:40:20;;;;;;;12.40;8.90;;;;;;;13.81;100.00;99597.31;5054667;28;20040;-81
2023/07/22 02:42:46;;;;;;;10.20;8.35;;;;;;;13.82;100.00;99601.63;5051316;28;20025;-82
2023/07/22 02:45:12;;;;;;;11.68;8.65;;;;;;;13.85;100.00;99601.25;5054944;28;20044;-79
2023/07/22 02:47:38;;;;;;;15.18;9.15;;;;;;;13.81;100.00;99584.84;5055209;28;20045;-78
2023/07/22 02:50:06;;;;;;;11.43;9.65;;;;;;;13.81;100.00;99592.00;5058306;28;20032;-81
2023/07/22 02:52:32;;;;;;;11.75;9.15;;;;;;;13.77;100.00;99589.72;5039588;28;20033;-79
2023/07/22 02:55:05;;;;;;;11.88;8.73;;;;;;;13.83;100.00;99580.19;5066530;28;20392;-79
2023/07/22 02:57:31;;;;;;;11.05;8.40;;;;;;;13.79;100.00;99572.78;5050394;28;20040;-79
2023/07/22 02:59:57;;;;;;;11.05;9.38;;;;;;;13.77;100.00;99581.75;5070428;28;20048;-81
2023/07/22 03:02:23;;;;;;;9.60;8.60;;;;;;;13.77;100.00;99576.44;5076946;28;20436;-81
2023/07/22 03:04:49;;;;;;;12.57;8.73;;;;;;;13.79;100.00;99578.09;5067103;28;20043;-78
2023/07/22 03:07:15;;;;;;;9.00;8.10;;;;;;;13.78;100.00;99566.63;5067087;28;20097;-79
2023/07/22 03:09:41;;;;;;;14.90;9.25;;;;;;;13.79;100.00;99559.50;5019137;28;20042;-78
2023/07/22 03:12:07;;;;;;;11.20;8.70;;;;;;;13.79;100.00;99559.50;5040099;28;20028;-77
2023/07/22 03:14:36;;;;;;;10.90;8.10;;;;;;;13.79;100.00;99564.81;5043951;28;20036;-80
2023/07/22 03:17:03;;;;;;;11.68;7.88;;;;;;;13.79;100.00;99551.53;5049327;28;20127;-81
2023/07/22 03:19:29;;;;;;;11.88;8.18;;;;;;;13.81;100.00;99549.50;5063043;28;20629;-82
2023/07/22 03:21:55;;;;;;;12.38;8.20;;;;;;;13.81;100.00;99552.97;5015888;28;20037;-81
2023/07/22 03:24:21;;;;;;;9.73;7.40;;;;;;;13.81;100.00;99534.38;5050782;28;20638;-83
2023/07/22 03:26:47;;;;;;;8.90;7.10;;;;;;;13.80;100.00;99534.56;5066827;28;20847;-82
2023/07/22 03:29:12;;;;;;;8.52;7.68;;;;;;;13.80;100.00;99527.44;5037627;28;20562;-81
2023/07/22 03:31:39;;;;;;;11.95;6.78;;;;;;;13.81;100.00;99522.94;5035553;28;20037;-81
2023/07/22 03:34:05;;;;;;;8.45;6.40;;;;;;;13.80;100.00;99513.31;5064115;28;20025;-81
2023/07/22 03:36:33;;;;;;;7.70;6.90;;;;;;;13.80;100.00;99522.13;5038863;28;20042;-82
2023/07/22 03:38:59;;;;;;;6.88;6.20;;;;;;;13.81;100.00;99515.00;5053983;28;20033;-82
2023/07/22 03:41:25;;;;;;;8.88;6.55;;;;;;;13.82;100.00;99517.44;5071549;28;20102;-83
2023/07/22 03:43:51;;;;;;;12.13;6.18;;;;;;;13.84;100.00;99504.78;5051091;28;20029;-80
2023/07/22 03:46:17;;;;;;;6.05;5.50;;;;;;;13.85;100.00;99497.66;5047775;28;20028;-81
2023/07/22 03:48:43;;;;;;;7.68;4.93;;;;;;;13.82;100.00;99493.53;5075387;28;20028;-82
2023/07/22 03:51:09;;;;;;;7.45;5.57;;;;;;;13.85;100.00;99489.69;5046630;28;20041;-82
2023/07/22 03:53:35;;;;;;;6.60;5.47;;;;;;;13.85;100.00;99487.84;5075567;28;20086;-82
2023/07/22 03:56:01;;;;;;;6.47;5.57;;;;;;;13.87;100.00;99483.16;5056982;28;20354;-83
2023/07/22 03:58:26;;;;;;;9.05;5.40;;;;;;;13.87;100.00;99471.72;5043085;28;20135;-80
2023/07/22 04:00:52;;;;;;;12.30;5.28;;;;;;;13.86;100.00;99470.06;5056310;28;20447;-80
2023/07/22 04:03:18;;;;;;;7.00;5.40;;;;;;;13.86;100.00;99465.59;5051894;28;20032;-79
2023/07/22 04:05:44;;;;;;;7.78;4.55;;;;;;;13.85;100.00;99461.28;5042446;28;20032;-80
2023/07/22 04:08:09;;;;;;;6.72;4.82;;;;;;;13.86;100.00;99462.09;5039072;28;20524;-80
2023/07/22 04:10:35;;;;;;;5.88;5.00;;;;;;;13.87;100.00;99463.75;5052093;28;20040;-81
2023/07/22 04:13:01;;;;;;;6.07;4.63;;;;;;;13.87;100.00;99453.94;5033118;28;20036;-81
2023/07/22 04:15:27;;;;;;;8.73;4.28;;;;;;;13.91;100.00;99459.69;5072953;28;20059;-82
2023/07/22 04:17:53;;;;;;;4.63;4.22;;;;;;;13.93;100.00;99454.19;5012949;28;20430;-82
2023/07/22 04:20:19;;;;;;;6.00;4.57;;;;;;;13.93;100.00;99448.88;5052810;28;20098;-81
2023/07/22 04:22:44;;;;;;;6.60;4.20;;;;;;;13.95;100.00;99446.88;5048817;28;20127;-82
2023/07/22 04:25:10;;;;;;;6.68;3.75;;;;;;;13.96;100.00;99440.53;5080986;28;20025;-81
2023/07/22 04:27:36;;;;;;;4.10;3.63;;;;;;;13.96;100.00;99438.69;5034693;28;20455;-81
2023/07/22 04:30:02;;;;;;;4.78;3.97;;;;;;;13.99;100.00;99437.50;5051824;28;20547;-80
2023/07/22 04:32:29;;;;;;;4.88;3.72;;;;;;;14.02;100.00;99435.28;5070494;28;20396;-80
2023/07/22 04:34:56;;;;;;;6.10;4.10;;;;;;;14.04;100.00;99434.25;5067929;28;20024;-80
2023/07/22 04:37:21;;;;;;;6.03;3.65;;;;;;;14.05;100.00;99439.38;5043740;28;20124;-79
2023/07/22 04:39:49;;;;;;;4.13;3.60;;;;;;;14.10;100.00;99430.81;5056671;28;20028;-81
2023/07/22 04:42:15;;;;;;;7.10;3.35;;;;;;;14.10;100.00;99439.63;5050795;28;20036;-81
2023/07/22 04:44:41;;;;;;;2.97;2.72;;;;;;;14.12;100.00;99429.63;5074002;28;20043;-81
2023/07/22 04:47:07;;;;;;;4.43;3.00;;;;;;;14.14;100.00;99430.25;5068217;28;20175;-78
2023/07/22 04:49:32;;;;;;;6.32;2.70;;;;;;;14.17;100.00;99420.25;5067358;28;20040;-78
2023/07/22 04:51:58;;;;;;;3.33;2.47;;;;;;;14.18;100.00;99421.88;5068104;28;20349;-79
2023/07/22 04:54:27;;;;;;;4.40;3.10;;;;;;;14.18;100.00;99416.56;5014437;28;20044;-79
2023/07/22 04:56:54;;;;;;;3.15;2.50;;;;;;;14.21;100.00;99413.53;5066558;28;20546;-80
2023/07/22 04:59:19;;;;;;;2.97;2.30;;;;;;;14.21;100.00;99410.88;5061002;28;20040;-81
2023/07/22 05:01:45;;;;;;;2.60;2.40;;;;;;;14.24;100.00;99402.50;5045344;28;20084;-82
2023/07/22 05:04:11;;;;;;;4.90;2.70;;;;;;;14.25;100.00;99407.63;5065712;28;20125;-80
2023/07/22 05:06:37;;;;;;;2.40;2.10;;;;;;;14.27;100.00;99396.78;5056520;28;20047;-81
2023/07/22 05:09:03;;;;;;;3.60;2.00;;;;;;;14.27;100.00;99386.16;5069539;28;20028;-82
2023/07/22 05:11:29;;;;;;;2.20;2.00;;;;;;;14.31;100.00;99390.09;5035071;28;20029;-81
2023/07/22 05:13:55;;;;;;;3.65;1.90;;;;;;;14.33;100.00;99395.22;5048177;28;20037;-78
2023/07/22 05:16:21;;;;;;;2.55;2.10;;;;;;;14.34;100.00;99388.88;5067760;28;20043;-80
2023/07/22 05:18:47;;;;;;;2.53;2.33;;;;;;;14.34;100.00;99384.38;5047664;28;20484;-82
2023/07/22 05:21:12;;;;;;;3.83;1.88;;;;;;;14.37;100.00;99386.66;5046482;28;20036;-80
2023/07/22 05:23:38;;;;;;;3.65;1.70;;;;;;;14.38;100.00;99376.84;5048780;28;20032;-80
2023/07/22 05:26:04;;;;;;;1.80;1.70;;;;;;;14.38;100.00;99372.34;5036944;28;20031;-82
2023/07/22 05:28:30;;;;;;;1.52;1.30;;;;;;;14.40;100.00;99374.78;5072627;28;20110;-79
2023/07/22 05:30:56;;;;;;;1.98;1.65;;;;;;;14.41;100.00;99372.97;5053700;28;20060;-79
2023/07/22 05:33:21;;;;;;;3.92;2.20;;;;;;;14.40;100.00;99372.13;5069062;28;20028;-80
2023/07/22 05:35:47;;;;;;;2.10;1.90;;;;;;;14.42;100.00;99370.13;5055239;28;20032;-80
2023/07/22 05:38:13;;;;;;;2.53;1.70;;;;;;;14.41;100.00;99365.81;5068424;28;20546;-80
2023/07/22 05:40:39;;;;;;;3.22;1.50;;;;;;;14.46;100.00;99360.72;5046078;28;20032;-80
2023/07/22 05:43:05;;;;;;;1.80;1.70;;;;;;;14.47;100.00;99359.72;5036608;28;20036;-79
2023/07/22 05:45:31;;;;;;;2.28;1.63;;;;;;;14.47;100.00;99359.72;5016653;28;20040;-81
2023/07/22 05:47:56;;;;;;;5.28;1.40;;;;;;;14.46;100.00;99358.06;5065413;28;20551;-79
2023/07/22 05:50:22;;;;;;;1.73;1.60;;;;;;;14.49;100.00;99354.19;5053903;28;20485;-79
2023/07/22 05:52:48;;;;;;;1.88;1.42;;;;;;;14.47;100.00;99349.09;5069023;28;20469;-80
2023/07/22 05:55:14;;;;;;;2.67;1.80;;;;;;;14.55;100.00;99360.56;5068473;28;20044;-81
2023/07/22 05:57:40;;;;;;;1.73;1.63;;;;;;;14.59;100.00;99357.31;5068096;28;20055;-82
2023/07/22 06:00:08;;;;;;;1.70;1.52;;;;;;;14.62;100.00;99353.44;5068366;28;20409;-80
2023/07/22 06:02:43;;;;;;;1.80;1.35;;;;;;;14.62;100.00;99351.59;5051200;28;20029;-81
2023/07/22 06:05:08;;;;;;;1.60;1.50;;;;;;;14.67;100.00;99352.84;5068762;28;20032;-82
2023/07/22 06:07:34;;;;;;;4.05;1.20;;;;;;;14.71;100.00;99346.94;5039876;28;20063;-83
2023/07/22 06:10:00;;;;;;;1.38;1.10;;;;;;;14.72;100.00;99343.25;5066424;28;20031;-81
2023/07/22 06:12:26;;;;;;;1.35;1.25;;;;;;;14.80;100.00;99342.28;5037027;28;20035;-81
2023/07/22 06:14:52;;;;;;;1.50;1.35;;;;;;;14.85;100.00;99347.81;5034361;28;20035;-81
2023/07/22 06:17:18;;;;;;;1.70;1.30;;;;;;;14.87;100.00;99343.09;5039677;28;20043;-80
2023/07/22 06:19:44;;;;;;;1.58;1.20;;;;;;;14.91;100.00;99340.06;5074952;28;20103;-81
2023/07/22 06:22:09;;;;;;;3.22;1.23;;;;;;;14.92;100.00;99342.53;5049600;28;20032;-82
2023/07/22 06:24:35;;;;;;;1.33;1.02;;;;;;;14.92;100.00;99331.91;5073514;28;20382;-82
2023/07/22 06:27:01;;;;;;;3.00;1.17;;;;;;;14.92;100.00;99323.09;5053489;28;20425;-81
2023/07/22 06:29:27;;;;;;;5.38;1.20;;;;;;;14.92;100.00;99328.41;5037977;28;20028;-81
2023/07/22 06:31:53;;;;;;;2.78;0.90;;;;;;;14.93;100.00;99327.38;5044258;28;20024;-82
2023/07/22 06:34:19;;;;;;;3.35;0.98;;;;;;;14.95;100.00;99317.34;5083734;28;20516;-81
2023/07/22 06:36:45;;;;;;;1.58;1.10;;;;;;;14.99;100.00;99322.06;5090971;28;20481;-80
2023/07/22 06:39:10;;;;;;;2.53;1.20;;;;;;;15.03;100.00;99309.19;5061852;28;20040;-81
2023/07/22 06:41:36;;;;;;;2.47;1.05;;;;;;;15.10;100.00;99312.69;5040949;28;20846;-81
2023/07/22 06:44:02;;;;;;;3.75;1.17;;;;;;;15.11;100.00;99308.97;5055359;28;20465;-80
2023/07/22 06:46:28;;;;;;;0.95;0.88;;;;;;;15.16;100.00;99310.22;5050622;28;20036;-79
2023/07/22 06:48:54;;;;;;;2.58;0.80;;;;;;;15.21;100.00;99307.78;5056459;28;20131;-80
2023/07/22 06:51:19;;;;;;;1.70;1.00;;;;;;;15.24;100.00;99302.88;5039007;28;20112;-79
2023/07/22 06:53:46;;;;;;;1.08;0.80;;;;;;;15.33;100.00;99305.34;5060304;28;20074;-80
2023/07/22 06:56:11;;;;;;;1.17;0.80;;;;;;;15.38;100.00;99302.88;5052317;28;20400;-80
2023/07/22 06:58:37;;;;;;;1.50;0.60;;;;;;;15.43;100.00;99303.06;5070344;28;20032;-81
2023/07/22 07:01:03;;;;;;;2.00;0.80;;;;;;;15.47;100.00;99299.00;5038563;28;20047;-80
2023/07/22 07:03:29;;;;;;;0.93;0.68;;;;;;;15.50;100.00;99297.75;5062276;28;20092;-80
2023/07/22 07:05:55;;;;;;;1.20;0.50;;;;;;;15.53;100.00;99308.00;5020690;28;20401;-81
2023/07/22 07:08:22;;;;;;;2.00;0.60;;;;;;;15.55;100.00;99305.13;5065578;28;20067;-81
2023/07/22 07:10:48;;;;;;;0.43;0.43;;;;;;;15.57;100.00;99300.41;5016866;28;20058;-81
2023/07/22 07:13:14;;;;;;;0.65;0.30;;;;;;;15.56;100.00;99306.78;5075170;28;20086;-79
2023/07/22 07:15:40;;;;;;;0.77;0.40;;;;;;;15.55;100.00;99295.28;5063315;28;20044;-81
2023/07/22 07:18:05;;;;;;;0.20;0.20;;;;;;;15.56;100.00;99293.47;5044172;28;20115;-81
2023/07/22 07:20:31;;;;;;;1.80;0.20;;;;;;;15.58;100.00;99286.91;5052919;28;20123;-81
2023/07/22 07:22:57;;;;;;;0.28;0.28;;;;;;;15.63;100.00;99286.28;5074900;28;20037;-82
2023/07/22 07:25:23;;;;;;;1.35;0.38;;;;;;;15.69;100.00;99285.44;5050685;28;20210;-81
2023/07/22 07:27:48;;;;;;;0.30;0.30;;;;;;;15.74;100.00;99283.00;5029885;28;20068;-82
2023/07/22 07:30:14;;;;;;;1.77;0.30;;;;;;;15.83;100.00;99282.78;5066605;28;20594;-81
2023/07/22 07:32:40;;;;;;;1.20;0.20;;;;;;;15.88;100.00;99285.63;5021142;28;20028;-81
2023/07/22 07:35:06;;;;;;;2.38;0.20;;;;;;;15.97;100.00;99275.56;5035459;28;20032;-81
2023/07/22 07:37:33;;;;;;;1.08;0.30;;;;;;;16.04;100.00;99276.38;5018377;28;20047;-82
2023/07/22 07:39:59;;;;;;;0.75;0.30;;;;;;;16.12;100.00;99284.16;5032454;28;20393;-82
2023/07/22 07:42:28;;;;;;;6.20;0.38;;;;;;;16.21;100.00;99283.94;5036962;28;20039;-81
2023/07/22 07:44:54;;;;;;;2.03;0.40;;;;;;;16.24;100.00;99275.53;5018866;28;20036;-80
2023/07/22 07:47:20;;;;;;;0.40;0.20;;;;;;;16.32;100.00;99272.63;5036145;28;20097;-81
2023/07/22 07:49:46;;;;;;;0.28;0.20;;;;;;;16.38;100.00;99273.63;5023110;28;20028;-80
2023/07/22 07:52:12;;;;;;;2.08;0.30;;;;;;;16.43;100.00;99270.31;5019006;28;20104;-79
2023/07/22 07:54:38;;;;;;;3.10;0.30;;;;;;;16.45;100.00;99266.38;5035431;28;20044;-80
2023/07/22 07:57:04;;;;;;;0.22;0.20;;;;;;;16.46;100.00;99268.03;5066679;28;20417;-82
2023/07/22 07:59:30;;;;;;;1.27;0.20;;;;;;;16.46;100.00;99267.22;5030234;28;20477;-81
2023/07/22 08:01:56;;;;;;;0.20;0.20;;;;;;;16.47;100.00;99272.34;5047566;28;20090;-81
2023/07/22 08:04:21;;;;;;;0.68;0.20;;;;;;;16.55;100.00;99268.59;5051246;28;20516;-82
2023/07/22 08:06:47;;;;;;;0.32;0.30;;;;;;;16.63;100.00;99256.88;5036668;28;20037;-80
2023/07/22 08:09:18;;;;;;;0.65;0.25;;;;;;;16.64;100.00;99261.19;5052810;28;20517;-82
2023/07/22 08:11:45;;;;;;;1.10;0.20;;;;;;;16.66;100.00;99247.63;5068725;28;20025;-81
2023/07/22 08:14:11;;;;;;;0.20;0.20;;;;;;;16.70;100.00;99239.00;5048220;28;20094;-81
2023/07/22 08:16:37;;;;;;;0.40;0.30;;;;;;;16.78;100.00;99243.25;5052176;28;21236;-81
2023/07/22 08:19:04;;;;;;;0.20;0.20;;;;;;;16.85;100.00;99235.22;5062382;28;20064;-81
2023/07/22 08:21:30;;;;;;;0.20;0.20;;;;;;;16.89;100.00;99233.72;5021136;28;20028;-81
2023/07/22 08:23:56;;;;;;;2.65;0.20;;;;;;;16.97;100.00;99235.31;5043327;28;20048;-80
2023/07/22 08:26:23;;;;;;;0.60;0.20;;;;;;;17.05;100.00;99240.38;5012754;28;20043;-80
2023/07/22 08:28:49;;;;;;;0.20;0.20;;;;;;;17.13;100.00;99236.66;5048990;28;20032;-82
2023/07/22 08:31:15;;;;;;;1.92;0.30;;;;;;;17.18;100.00;99236.84;5057744;28;20094;-78
2023/07/22 08:33:40;;;;;;;0.30;0.20;;;;;;;17.20;100.00;99233.94;5036855;28;20491;-82
2023/07/22 08:36:06;;;;;;;0.38;0.38;;;;;;;17.27;100.00;99234.69;5049616;28;20083;-81
2023/07/22 08:38:32;;;;;;;0.70;0.40;;;;;;;17.28;100.00;99233.66;5047734;28;20048;-83
2023/07/22 08:40:58;;;;;;;0.50;0.40;;;;;;;17.29;100.00;99232.63;5036927;28;20110;-82
2023/07/22 08:43:26;;;;;;;0.60;0.40;;;;;;;17.30;100.00;99231.59;5070330;28;20040;-81
2023/07/22 08:45:52;;;;;;;0.40;0.40;;;;;;;17.30;100.00;99228.09;5049365;28;20106;-82
2023/07/22 08:48:18;;;;;;;0.80;0.60;;;;;;;17.30;100.00;99222.75;5070068;28;20044;-82
2023/07/22 08:51:16;;;;;;;0.52;0.47;;;;;;;17.32;100.00;99224.19;5070928;28;20048;-81
2023/07/22 08:53:44;;;;;;;0.57;0.57;;;;;;;17.39;100.00;99224.09;5018312;28;20508;-82
2023/07/22 08:56:10;;;;;;;1.15;0.50;;;;;;;17.39;100.00;99224.09;5024500;28;20033;-80
2023/07/22 08:58:38;;;;;;;0.43;0.43;;;;;;;17.36;100.00;99221.88;5013301;28;20047;-81
2023/07/22 09:01:05;;;;;;;0.50;0.50;;;;;;;17.34;100.00;99222.09;5050734;28;20048;-82
2023/07/22 09:03:32;;;;;;;1.05;0.50;;;;;;;17.34;100.00;99213.28;5052043;28;20024;-80
2023/07/22 09:05:58;;;;;;;0.60;0.50;;;;;;;17.34;100.00;99210.59;5047314;28;20092;-81
2023/07/22 09:08:27;;;;;;;0.60;0.50;;;;;;;17.40;100.00;99203.56;5053674;28;20044;-80
2023/07/22 09:10:53;;;;;;;0.38;0.38;;;;;;;17.40;100.00;99199.03;5050366;28;20072;-80
2023/07/22 09:13:21;;;;;;;0.40;0.40;;;;;;;17.49;100.00;99204.91;5034725;28;20039;-81
2023/07/22 09:15:49;;;;;;;0.30;0.30;;;;;;;17.57;100.00;99206.47;5066135;28;20044;-81
2023/07/22 09:18:15;;;;;;;0.45;0.45;;;;;;;17.63;100.00;99213.59;5025952;28;20059;-81
2023/07/22 09:20:42;;;;;;;0.85;0.40;;;;;;;17.68;100.00;99205.75;5066941;28;20595;-80
2023/07/22 09:23:08;;;;;;;0.82;0.45;;;;;;;17.70;100.00;99200.16;5033624;28;20881;-81
2023/07/22 09:25:34;;;;;;;0.52;0.43;;;;;;;17.74;100.00;99206.72;5067084;28;20107;-82
2023/07/22 09:28:00;;;;;;;1.40;0.60;;;;;;;17.81;100.00;99199.44;5044208;28;20579;-80
2023/07/22 09:30:34;;;;;;;1.05;0.50;;;;;;;17.81;100.00;99202.09;5050105;28;20028;-81
2023/07/22 09:33:02;;;;;;;0.85;0.43;;;;;;;17.94;100.00;99189.63;5034577;28;20033;-82
2023/07/22 09:35:44;;;;;;;1.27;0.50;;;;;;;18.01;100.00;99184.19;5048855;28;20500;-80
2023/07/22 09:38:11;;;;;;;0.55;0.55;;;;;;;18.00;100.00;99182.59;5083221;28;20036;-80
2023/07/22 09:40:40;;;;;;;0.50;0.50;;;;;;;18.04;100.00;99186.44;5050257;28;20031;-81
2023/07/22 09:43:10;;;;;;;0.40;0.40;;;;;;;18.10;100.00;99181.00;5062868;28;20174;-80
2023/07/22 09:45:37;;;;;;;1.02;0.50;;;;;;;18.12;100.00;99188.00;5034401;28;20123;-81
2023/07/22 09:48:04;;;;;;;1.70;0.60;;;;;;;18.18;100.00;99184.44;5054090;28;20040;-82
2023/07/22 09:50:29;;;;;;;0.70;0.70;;;;;;;18.22;100.00;99183.75;5045057;28;20101;-83
2023/07/22 09:53:03;;;;;;;0.52;0.52;;;;;;;18.25;100.00;99182.47;5033484;28;20028;-82
2023/07/22 09:55:31;;;;;;;0.95;0.60;;;;;;;18.27;100.00;99179.59;5062741;28;20032;-82
2023/07/22 09:58:02;;;;;;;0.50;0.50;;;;;;;18.29;100.00;99183.66;5076575;28;20036;-81
2023/07/22 10:00:30;;;;;;;1.08;0.50;;;;;;;18.32;100.00;99185.06;5046248;28;20084;-82
2023/07/22 10:02:57;;;;;;;0.50;0.50;;;;;;;18.34;100.00;99177.63;5034401;28;20032;-81
2023/07/22 10:05:25;;;;;;;0.63;0.50;;;;;;;18.36;100.00;99186.25;5070066;28;20032;-81
2023/07/22 10:07:54;;;;;;;1.05;0.50;;;;;;;18.37;100.00;99177.19;5049030;28;20044;-82
2023/07/22 10:10:27;;;;;;;0.50;0.40;;;;;;;18.41;100.00;99182.91;5051582;28;20504;-81
2023/07/22 10:12:53;;;;;;;1.60;0.60;;;;;;;18.41;100.00;99173.00;5050655;28;20028;-81
2023/07/22 10:15:20;;;;;;;0.50;0.50;;;;;;;18.49;100.00;99163.81;5047833;28;20598;-82
2023/07/22 10:17:46;;;;;;;1.35;0.70;;;;;;;18.54;100.00;99163.97;5047422;28;20067;-81
2023/07/22 10:20:19;;;;;;;0.60;0.60;;;;;;;18.63;100.00;99167.13;5048585;28;20580;-80
2023/07/22 10:22:47;;;;;;;1.10;0.70;;;;;;;18.70;100.00;99170.50;5034535;28;20040;-82
2023/07/22 10:25:16;;;;;;;4.05;1.00;;;;;;;18.74;100.00;99165.53;5049751;28;20052;-82
2023/07/22 10:27:42;;;;;;;1.15;0.70;;;;;;;18.77;100.00;99169.59;5065820;28;20040;-80
2023/07/22 10:30:13;;;;;;;0.70;0.70;;;;;;;18.84;100.00;99165.75;5066268;28;20029;-82
2023/07/22 10:32:47;;;;;;;1.20;1.00;;;;;;;18.89;100.00;99165.06;5073955;28;20043;-81
2023/07/22 10:35:32;;;;;;;1.67;0.82;;;;;;;18.92;100.00;99163.81;5031311;28;20111;-82
2023/07/22 10:38:10;;;;;;;0.82;0.77;;;;;;;18.90;100.00;99161.38;5081014;28;20115;-82
2023/07/22 10:40:53;;;;;;;1.23;0.90;;;;;;;18.89;100.00;99159.72;5016237;28;20503;-82
2023/07/22 10:43:31;;;;;;;1.02;0.85;;;;;;;18.93;100.00;99157.41;5047649;28;20029;-80
2023/07/22 10:45:59;;;;;;;0.77;0.60;;;;;;;18.88;100.00;99163.44;5064000;28;20029;-81
2023/07/22 10:48:37;;;;;;;0.93;0.60;;;;;;;18.84;100.00;99149.69;5013420;28;20037;-82
2023/07/22 10:51:09;;;;;;;1.50;0.90;;;;;;;18.84;100.00;99152.38;5059205;28;20145;-83
2023/07/22 10:53:48;;;;;;;0.70;0.70;;;;;;;18.91;100.00;99148.78;5067749;28;20495;-85
2023/07/22 10:56:19;;;;;;;0.80;0.70;;;;;;;18.90;100.00;99150.66;5032605;28;20036;-83
2023/07/22 10:58:45;;;;;;;0.90;0.77;;;;;;;18.92;100.00;99148.53;5068979;28;20065;-82
2023/07/22 11:01:29;;;;;;;1.67;0.85;;;;;;;18.89;100.00;99151.69;5066501;28;20071;-83
2023/07/22 11:04:18;;;;;;;0.90;0.90;;;;;;;18.89;100.00;99138.28;5054505;28;20114;-81
2023/07/22 11:06:44;;;;;;;1.23;1.13;;;;;;;18.93;100.00;99141.34;5051151;28;20032;-82
2023/07/22 11:09:34;;;;;;;1.35;1.25;;;;;;;19.01;100.00;99138.31;5065837;28;20036;-81
2023/07/22 11:12:01;;;;;;;1.88;1.42;;;;;;;19.04;100.00;99137.84;5050180;28;20044;-80
2023/07/22 11:14:31;;;;;;;1.25;1.15;;;;;;;19.15;100.00;99130.06;5066527;28;20051;-82
2023/07/22 11:16:58;;;;;;;1.10;1.00;;;;;;;19.20;100.00;99130.19;5038893;28;20507;-82
2023/07/22 11:19:25;;;;;;;0.85;0.80;;;;;;;19.20;100.00;99122.16;5058475;28;20045;-83
2023/07/22 11:21:52;;;;;;;1.42;0.90;;;;;;;19.24;100.00;99128.66;5025748;28;20433;-79